Eagle County Regional Airport Eagle US
ICAO: KEGE
IATA: EGE
Category: Medium
Scheduled Services: Yes

Elevation: 6548 ft
TransAlt. 18000 ft.

Airport Communications:
ATIS:135.575
AWOS 3:135.575
DENVER CNTR:128.65
CTAF:119.8
GND/CLNC DEL:121.8
EAGLES NEST:41.75
DENVER RDO:122.2
TWR:119.8

KEGE Zoom In..

If you have problems with the map follow the link
https://www.worldairports.se/pages/airport.php?
ICAO=KEGE

Runways:

(A) RW 07 length 9000 ft width 150 ft
LOC 110.10 / hdg 69

(B) RW 25 length 9000 ft width 150 ft
LOC 110.10 / hdg 249

Location; KEGE
Day. 25 / Time. 23.56 Zulu
* Altimeter: 30.15
* Temperature: 6/° c. 42.8°f.
* Wind from: 240° Speed 09 kn.
Dewpoint: //° c.
Visibility: 10 Statute Miles.
Clouds: Clear (automated report).

KEGE 252356Z 24009KT 10SM CLR 04/M07 A3015 RMK AO2 SLP233 6//// T00391067 10067 20017 55004 PNO $


Wind From 240°
Speed 09 kn.

 
 
jpsmedia worldairports.se 2020   terms of use